sensor_id;sensor_type;location;lat;lon;timestamp;temperature;humidity
4795;DHT22;2411;47.060;15.064;2022-09-20T00:01:16;5.50;1.00
4795;DHT22;2411;47.060;15.064;2022-09-20T00:03:45;5.40;1.00
4795;DHT22;2411;47.060;15.064;2022-09-20T00:06:15;5.40;1.00
4795;DHT22;2411;47.060;15.064;2022-09-20T00:08:42;5.40;1.00
4795;DHT22;2411;47.060;15.064;2022-09-20T00:11:16;5.50;1.00
4795;DHT22;2411;47.060;15.064;2022-09-20T00:13:44;5.40;1.00
4795;DHT22;2411;47.060;15.064;2022-09-20T00:16:14;5.40;1.00
4795;DHT22;2411;47.060;15.064;2022-09-20T00:18:41;5.40;1.00
4795;DHT22;2411;47.060;15.064;2022-09-20T00:21:15;5.40;1.00
4795;DHT22;2411;47.060;15.064;2022-09-20T00:23:43;5.40;1.00
4795;DHT22;2411;47.060;15.064;2022-09-20T00:26:10;5.40;1.00
4795;DHT22;2411;47.060;15.064;2022-09-20T00:28:37;5.40;1.00
4795;DHT22;2411;47.060;15.064;2022-09-20T00:31:04;5.40;1.00
4795;DHT22;2411;47.060;15.064;2022-09-20T00:33:31;5.40;1.00
4795;DHT22;2411;47.060;15.064;2022-09-20T00:36:18;5.60;1.00
4795;DHT22;2411;47.060;15.064;2022-09-20T00:38:45;5.70;1.00
4795;DHT22;2411;47.060;15.064;2022-09-20T00:41:12;6.70;1.00
4795;DHT22;2411;47.060;15.064;2022-09-20T00:43:41;7.20;1.00
4795;DHT22;2411;47.060;15.064;2022-09-20T00:46:40;7.50;1.00
4795;DHT22;2411;47.060;15.064;2022-09-20T00:49:20;7.80;1.00
4795;DHT22;2411;47.060;15.064;2022-09-20T00:51:56;8.40;1.00
4795;DHT22;2411;47.060;15.064;2022-09-20T00:54:26;8.30;1.00
4795;DHT22;2411;47.060;15.064;2022-09-20T00:56:54;8.30;1.00
4795;DHT22;2411;47.060;15.064;2022-09-20T00:59:22;8.70;1.00
4795;DHT22;2411;47.060;15.064;2022-09-20T01:02:09;8.70;1.00
4795;DHT22;2411;47.060;15.064;2022-09-20T01:04:40;8.70;1.00
4795;DHT22;2411;47.060;15.064;2022-09-20T01:07:10;8.40;1.00
4795;DHT22;2411;47.060;15.064;2022-09-20T01:09:38;8.20;1.00
4795;DHT22;2411;47.060;15.064;2022-09-20T01:12:15;7.90;1.00
4795;DHT22;2411;47.060;15.064;2022-09-20T01:14:45;7.90;1.00
4795;DHT22;2411;47.060;15.064;2022-09-20T01:17:13;7.80;1.00
4795;DHT22;2411;47.060;15.064;2022-09-20T01:28:26;6.50;1.00
4795;DHT22;2411;47.060;15.064;2022-09-20T01:33:58;6.20;1.00
4795;DHT22;2411;47.060;15.064;2022-09-20T01:36:32;6.00;1.00
4795;DHT22;2411;47.060;15.064;2022-09-20T01:39:34;5.90;1.00
4795;DHT22;2411;47.060;15.064;2022-09-20T01:42:09;5.70;1.00
4795;DHT22;2411;47.060;15.064;2022-09-20T01:50:18;5.50;1.00
4795;DHT22;2411;47.060;15.064;2022-09-20T02:07:31;5.20;1.00
4795;DHT22;2411;47.060;15.064;2022-09-20T02:15:29;5.30;1.00
4795;DHT22;2411;47.060;15.064;2022-09-20T02:32:46;4.90;1.00
4795;DHT22;2411;47.060;15.064;2022-09-20T02:40:55;4.80;1.00
4795;DHT22;2411;47.060;15.064;2022-09-20T02:43:56;4.80;1.00
4795;DHT22;2411;47.060;15.064;2022-09-20T02:46:44;4.90;1.00
4795;DHT22;2411;47.060;15.064;2022-09-20T02:52:39;5.40;1.00
4795;DHT22;2411;47.060;15.064;2022-09-20T02:55:25;5.30;1.00
4795;DHT22;2411;47.060;15.064;2022-09-20T02:58:33;5.20;1.00
4795;DHT22;2411;47.060;15.064;2022-09-20T03:06:59;5.10;1.00
4795;DHT22;2411;47.060;15.064;2022-09-20T03:09:33;5.00;1.00
4795;DHT22;2411;47.060;15.064;2022-09-20T03:15:15;4.90;1.00
4795;DHT22;2411;47.060;15.064;2022-09-20T03:23:48;4.80;1.00
4795;DHT22;2411;47.060;15.064;2022-09-20T03:26:42;4.80;1.00
4795;DHT22;2411;47.060;15.064;2022-09-20T03:54:33;4.60;1.00
4795;DHT22;2411;47.060;15.064;2022-09-20T04:04:58;4.30;1.00
4795;DHT22;2411;47.060;15.064;2022-09-20T04:10:40;4.20;1.00
4795;DHT22;2411;47.060;15.064;2022-09-20T04:13:35;4.20;1.00
4795;DHT22;2411;47.060;15.064;2022-09-20T04:16:34;4.20;1.00
4795;DHT22;2411;47.060;15.064;2022-09-20T04:19:17;4.10;1.00
4795;DHT22;2411;47.060;15.064;2022-09-20T04:21:55;4.20;1.00
4795;DHT22;2411;47.060;15.064;2022-09-20T04:27:16;4.10;1.00
4795;DHT22;2411;47.060;15.064;2022-09-20T04:29:57;4.10;1.00
4795;DHT22;2411;47.060;15.064;2022-09-20T04:38:27;4.10;1.00
4795;DHT22;2411;47.060;15.064;2022-09-20T04:41:01;4.10;1.00
4795;DHT22;2411;47.060;15.064;2022-09-20T04:46:24;4.00;1.00
4795;DHT22;2411;47.060;15.064;2022-09-20T05:00:05;4.30;1.00
4795;DHT22;2411;47.060;15.064;2022-09-20T05:03:19;4.30;1.00
4795;DHT22;2411;47.060;15.064;2022-09-20T05:06:02;4.30;1.00
4795;DHT22;2411;47.060;15.064;2022-09-20T05:20:42;4.30;1.00
4795;DHT22;2411;47.060;15.064;2022-09-20T05:29:19;4.40;1.00
4795;DHT22;2411;47.060;15.064;2022-09-20T05:43:32;4.70;1.00
4795;DHT22;2411;47.060;15.064;2022-09-20T05:48:53;4.70;1.00
4795;DHT22;2411;47.060;15.064;2022-09-20T05:56:33;5.00;1.00
4795;DHT22;2411;47.060;15.064;2022-09-20T06:02:21;5.10;1.00
4795;DHT22;2411;47.060;15.064;2022-09-20T06:16:01;5.90;1.00
4795;DHT22;2411;47.060;15.064;2022-09-20T06:18:58;6.30;1.00
4795;DHT22;2411;47.060;15.064;2022-09-20T06:24:25;6.70;1.00
4795;DHT22;2411;47.060;15.064;2022-09-20T06:26:56;6.90;1.00
4795;DHT22;2411;47.060;15.064;2022-09-20T06:29:33;7.20;1.00
4795;DHT22;2411;47.060;15.064;2022-09-20T06:32:01;7.40;1.00
4795;DHT22;2411;47.060;15.064;2022-09-20T06:34:28;7.50;1.00
4795;DHT22;2411;47.060;15.064;2022-09-20T06:37:28;7.60;1.00
4795;DHT22;2411;47.060;15.064;2022-09-20T06:43:16;8.00;1.00
4795;DHT22;2411;47.060;15.064;2022-09-20T06:45:44;8.20;1.00
4795;DHT22;2411;47.060;15.064;2022-09-20T06:48:13;8.30;1.00
4795;DHT22;2411;47.060;15.064;2022-09-20T06:50:41;8.20;1.00
4795;DHT22;2411;47.060;15.064;2022-09-20T06:53:26;8.10;1.00
4795;DHT22;2411;47.060;15.064;2022-09-20T06:55:53;8.10;1.00
4795;DHT22;2411;47.060;15.064;2022-09-20T06:58:21;8.20;1.00
4795;DHT22;2411;47.060;15.064;2022-09-20T07:00:48;8.40;1.00
4795;DHT22;2411;47.060;15.064;2022-09-20T07:03:14;8.50;1.00
4795;DHT22;2411;47.060;15.064;2022-09-20T07:05:41;8.80;1.00
4795;DHT22;2411;47.060;15.064;2022-09-20T07:08:08;9.20;1.00
4795;DHT22;2411;47.060;15.064;2022-09-20T07:10:35;9.80;1.00
4795;DHT22;2411;47.060;15.064;2022-09-20T07:13:02;10.50;1.00
4795;DHT22;2411;47.060;15.064;2022-09-20T07:15:31;11.10;1.00
4795;DHT22;2411;47.060;15.064;2022-09-20T07:17:58;11.70;1.00
4795;DHT22;2411;47.060;15.064;2022-09-20T07:20:26;12.20;1.00
4795;DHT22;2411;47.060;15.064;2022-09-20T07:22:53;12.30;1.00
4795;DHT22;2411;47.060;15.064;2022-09-20T07:25:21;12.40;1.00
4795;DHT22;2411;47.060;15.064;2022-09-20T07:27:49;12.70;1.00
4795;DHT22;2411;47.060;15.064;2022-09-20T07:30:18;12.70;1.00
4795;DHT22;2411;47.060;15.064;2022-09-20T07:32:45;12.50;1.00
4795;DHT22;2411;47.060;15.064;2022-09-20T07:35:12;12.40;1.00
4795;DHT22;2411;47.060;15.064;2022-09-20T07:37:39;12.30;1.00
4795;DHT22;2411;47.060;15.064;2022-09-20T07:40:10;12.20;1.00
4795;DHT22;2411;47.060;15.064;2022-09-20T07:42:37;12.00;1.00
4795;DHT22;2411;47.060;15.064;2022-09-20T07:45:05;11.80;1.00
4795;DHT22;2411;47.060;15.064;2022-09-20T07:47:33;11.70;1.00
4795;DHT22;2411;47.060;15.064;2022-09-20T07:50:02;11.70;1.00
4795;DHT22;2411;47.060;15.064;2022-09-20T07:52:29;12.10;1.00
4795;DHT22;2411;47.060;15.064;2022-09-20T07:54:56;12.40;1.00
4795;DHT22;2411;47.060;15.064;2022-09-20T07:57:23;12.60;1.00
4795;DHT22;2411;47.060;15.064;2022-09-20T07:59:50;12.70;1.00
4795;DHT22;2411;47.060;15.064;2022-09-20T08:02:17;12.90;1.00
4795;DHT22;2411;47.060;15.064;2022-09-20T08:04:44;13.10;1.00
4795;DHT22;2411;47.060;15.064;2022-09-20T08:07:10;13.30;1.00
4795;DHT22;2411;47.060;15.064;2022-09-20T08:09:38;13.30;1.00
4795;DHT22;2411;47.060;15.064;2022-09-20T08:12:05;13.20;1.00
4795;DHT22;2411;47.060;15.064;2022-09-20T08:14:54;13.00;1.00
4795;DHT22;2411;47.060;15.064;2022-09-20T08:17:21;13.10;1.00
4795;DHT22;2411;47.060;15.064;2022-09-20T08:19:47;13.30;1.00
4795;DHT22;2411;47.060;15.064;2022-09-20T08:22:16;13.80;1.00
4795;DHT22;2411;47.060;15.064;2022-09-20T08:24:43;14.10;1.00
4795;DHT22;2411;47.060;15.064;2022-09-20T08:27:10;14.20;1.00
4795;DHT22;2411;47.060;15.064;2022-09-20T08:29:38;14.70;1.00
4795;DHT22;2411;47.060;15.064;2022-09-20T08:32:06;15.00;1.00
4795;DHT22;2411;47.060;15.064;2022-09-20T08:34:32;15.20;1.00
4795;DHT22;2411;47.060;15.064;2022-09-20T08:36:59;15.50;1.00
4795;DHT22;2411;47.060;15.064;2022-09-20T08:39:26;16.00;1.00
4795;DHT22;2411;47.060;15.064;2022-09-20T08:42:17;16.10;1.00
4795;DHT22;2411;47.060;15.064;2022-09-20T08:44:53;16.00;1.00
4795;DHT22;2411;47.060;15.064;2022-09-20T08:47:54;15.90;1.00
4795;DHT22;2411;47.060;15.064;2022-09-20T08:50:24;15.90;1.00
4795;DHT22;2411;47.060;15.064;2022-09-20T08:52:55;16.10;1.00
4795;DHT22;2411;47.060;15.064;2022-09-20T08:55:27;16.40;1.00
4795;DHT22;2411;47.060;15.064;2022-09-20T08:58:02;16.60;1.00
4795;DHT22;2411;47.060;15.064;2022-09-20T09:00:35;16.70;1.00
4795;DHT22;2411;47.060;15.064;2022-09-20T09:03:11;17.10;1.00
4795;DHT22;2411;47.060;15.064;2022-09-20T09:05:52;17.20;1.00
4795;DHT22;2411;47.060;15.064;2022-09-20T09:08:27;17.50;1.00
4795;DHT22;2411;47.060;15.064;2022-09-20T09:10:57;17.10;1.00
4795;DHT22;2411;47.060;15.064;2022-09-20T09:16:09;16.10;1.00
4795;DHT22;2411;47.060;15.064;2022-09-20T09:18:43;15.40;1.00
4795;DHT22;2411;47.060;15.064;2022-09-20T09:21:20;15.10;1.00
4795;DHT22;2411;47.060;15.064;2022-09-20T09:24:02;14.70;1.00
4795;DHT22;2411;47.060;15.064;2022-09-20T09:26:38;14.50;1.00
4795;DHT22;2411;47.060;15.064;2022-09-20T09:31:35;14.80;1.00
4795;DHT22;2411;47.060;15.064;2022-09-20T09:34:04;14.90;1.00
4795;DHT22;2411;47.060;15.064;2022-09-20T09:36:47;15.00;1.00
4795;DHT22;2411;47.060;15.064;2022-09-20T09:39:31;15.20;1.00
4795;DHT22;2411;47.060;15.064;2022-09-20T09:41:59;15.20;1.00
4795;DHT22;2411;47.060;15.064;2022-09-20T09:44:31;15.40;1.00
4795;DHT22;2411;47.060;15.064;2022-09-20T09:47:00;15.30;1.00
4795;DHT22;2411;47.060;15.064;2022-09-20T09:49:29;15.30;1.00
4795;DHT22;2411;47.060;15.064;2022-09-20T09:52:26;15.20;1.00
4795;DHT22;2411;47.060;15.064;2022-09-20T09:54:59;15.20;1.00
4795;DHT22;2411;47.060;15.064;2022-09-20T10:00:19;15.50;1.00
4795;DHT22;2411;47.060;15.064;2022-09-20T10:19:13;16.00;1.00
4795;DHT22;2411;47.060;15.064;2022-09-20T10:22:03;16.20;1.00
4795;DHT22;2411;47.060;15.064;2022-09-20T10:30:09;16.40;1.00
4795;DHT22;2411;47.060;15.064;2022-09-20T10:41:02;16.10;1.00
4795;DHT22;2411;47.060;15.064;2022-09-20T10:54:58;16.20;1.00
4795;DHT22;2411;47.060;15.064;2022-09-20T11:00:36;16.90;1.00
4795;DHT22;2411;47.060;15.064;2022-09-20T11:08:59;16.90;1.00
4795;DHT22;2411;47.060;15.064;2022-09-20T11:11:37;16.20;1.00
4795;DHT22;2411;47.060;15.064;2022-09-20T11:14:17;16.60;1.00
4795;DHT22;2411;47.060;15.064;2022-09-20T11:17:00;17.00;1.00
4795;DHT22;2411;47.060;15.064;2022-09-20T11:22:14;18.00;1.00
4795;DHT22;2411;47.060;15.064;2022-09-20T11:27:24;19.00;1.00
4795;DHT22;2411;47.060;15.064;2022-09-20T11:30:01;19.10;1.00
4795;DHT22;2411;47.060;15.064;2022-09-20T11:37:45;17.80;1.00
4795;DHT22;2411;47.060;15.064;2022-09-20T11:40:27;17.20;1.00
4795;DHT22;2411;47.060;15.064;2022-09-20T11:42:57;16.90;1.00
4795;DHT22;2411;47.060;15.064;2022-09-20T11:45:26;17.20;1.00
4795;DHT22;2411;47.060;15.064;2022-09-20T11:48:01;17.20;1.00
4795;DHT22;2411;47.060;15.064;2022-09-20T11:50:59;17.10;1.00
4795;DHT22;2411;47.060;15.064;2022-09-20T11:53:41;16.80;1.00
4795;DHT22;2411;47.060;15.064;2022-09-20T11:56:22;16.50;1.00
4795;DHT22;2411;47.060;15.064;2022-09-20T11:58:57;16.40;1.00
4795;DHT22;2411;47.060;15.064;2022-09-20T12:01:40;16.00;1.00
4795;DHT22;2411;47.060;15.064;2022-09-20T12:09:39;15.70;1.00
4795;DHT22;2411;47.060;15.064;2022-09-20T12:15:02;15.80;1.00
4795;DHT22;2411;47.060;15.064;2022-09-20T12:28:49;15.00;1.00
4795;DHT22;2411;47.060;15.064;2022-09-20T12:36:38;15.00;1.00
4795;DHT22;2411;47.060;15.064;2022-09-20T12:47:25;14.90;1.00
4795;DHT22;2411;47.060;15.064;2022-09-20T12:49:55;15.00;1.00
4795;DHT22;2411;47.060;15.064;2022-09-20T13:01:42;15.60;1.00
4795;DHT22;2411;47.060;15.064;2022-09-20T13:03:45;15.60;1.00
4795;DHT22;2411;47.060;15.064;2022-09-20T13:08:51;15.60;1.00
4795;DHT22;2411;47.060;15.064;2022-09-20T13:11:23;15.50;1.00
4795;DHT22;2411;47.060;15.064;2022-09-20T13:19:27;14.80;1.00
4795;DHT22;2411;47.060;15.064;2022-09-20T13:24:35;14.90;1.00
4795;DHT22;2411;47.060;15.064;2022-09-20T13:32:43;15.40;1.00
4795;DHT22;2411;47.060;15.064;2022-09-20T13:35:26;15.30;1.00
4795;DHT22;2411;47.060;15.064;2022-09-20T13:38:05;15.30;1.00
4795;DHT22;2411;47.060;15.064;2022-09-20T13:40:44;15.40;1.00
4795;DHT22;2411;47.060;15.064;2022-09-20T13:43:37;15.40;1.00
4795;DHT22;2411;47.060;15.064;2022-09-20T13:46:10;15.50;1.00
4795;DHT22;2411;47.060;15.064;2022-09-20T13:48:37;15.70;1.00
4795;DHT22;2411;47.060;15.064;2022-09-20T13:51:16;15.80;1.00
4795;DHT22;2411;47.060;15.064;2022-09-20T13:53:43;16.00;1.00
4795;DHT22;2411;47.060;15.064;2022-09-20T13:56:27;16.00;1.00
4795;DHT22;2411;47.060;15.064;2022-09-20T13:58:55;15.80;1.00
4795;DHT22;2411;47.060;15.064;2022-09-20T14:01:30;15.60;1.00
4795;DHT22;2411;47.060;15.064;2022-09-20T14:04:04;15.70;1.00
4795;DHT22;2411;47.060;15.064;2022-09-20T14:06:31;15.80;1.00
4795;DHT22;2411;47.060;15.064;2022-09-20T14:09:01;15.90;1.00
4795;DHT22;2411;47.060;15.064;2022-09-20T14:11:36;16.20;1.00
4795;DHT22;2411;47.060;15.064;2022-09-20T14:14:05;16.00;1.00
4795;DHT22;2411;47.060;15.064;2022-09-20T14:16:37;16.00;1.00
4795;DHT22;2411;47.060;15.064;2022-09-20T14:19:05;15.90;1.00
4795;DHT22;2411;47.060;15.064;2022-09-20T14:21:36;16.10;1.00
4795;DHT22;2411;47.060;15.064;2022-09-20T14:24:22;16.40;1.00
4795;DHT22;2411;47.060;15.064;2022-09-20T14:29:53;16.10;1.00
4795;DHT22;2411;47.060;15.064;2022-09-20T14:35:00;16.30;1.00
4795;DHT22;2411;47.060;15.064;2022-09-20T14:40:28;15.80;1.00
4795;DHT22;2411;47.060;15.064;2022-09-20T14:42:59;15.80;1.00
4795;DHT22;2411;47.060;15.064;2022-09-20T14:45:38;16.00;1.00
4795;DHT22;2411;47.060;15.064;2022-09-20T14:48:28;16.30;1.00
4795;DHT22;2411;47.060;15.064;2022-09-20T14:53:42;16.10;1.00
4795;DHT22;2411;47.060;15.064;2022-09-20T14:56:11;16.00;1.00
4795;DHT22;2411;47.060;15.064;2022-09-20T15:01:28;16.20;1.00
4795;DHT22;2411;47.060;15.064;2022-09-20T15:03:56;16.00;1.00
4795;DHT22;2411;47.060;15.064;2022-09-20T15:06:23;16.30;1.00
4795;DHT22;2411;47.060;15.064;2022-09-20T15:08:51;16.60;1.00
4795;DHT22;2411;47.060;15.064;2022-09-20T15:11:18;16.50;1.00
4795;DHT22;2411;47.060;15.064;2022-09-20T15:13:46;16.30;1.00
4795;DHT22;2411;47.060;15.064;2022-09-20T15:16:13;16.00;1.00
4795;DHT22;2411;47.060;15.064;2022-09-20T15:18:43;15.60;1.00
4795;DHT22;2411;47.060;15.064;2022-09-20T15:21:10;15.30;1.00
4795;DHT22;2411;47.060;15.064;2022-09-20T15:23:38;15.00;1.00
4795;DHT22;2411;47.060;15.064;2022-09-20T15:26:06;14.90;1.00
4795;DHT22;2411;47.060;15.064;2022-09-20T15:28:33;14.60;1.00
4795;DHT22;2411;47.060;15.064;2022-09-20T15:31:00;14.40;1.00
4795;DHT22;2411;47.060;15.064;2022-09-20T15:33:29;14.40;1.00
4795;DHT22;2411;47.060;15.064;2022-09-20T15:35:59;14.30;1.00
4795;DHT22;2411;47.060;15.064;2022-09-20T15:38:27;14.00;1.00
4795;DHT22;2411;47.060;15.064;2022-09-20T15:40:54;14.00;1.00
4795;DHT22;2411;47.060;15.064;2022-09-20T15:43:23;13.80;1.00
4795;DHT22;2411;47.060;15.064;2022-09-20T15:45:58;13.50;1.00
4795;DHT22;2411;47.060;15.064;2022-09-20T15:48:29;13.40;1.00
4795;DHT22;2411;47.060;15.064;2022-09-20T15:53:38;13.40;1.00
4795;DHT22;2411;47.060;15.064;2022-09-20T15:56:25;13.20;1.00
4795;DHT22;2411;47.060;15.064;2022-09-20T15:59:01;13.20;1.00
4795;DHT22;2411;47.060;15.064;2022-09-20T16:01:31;13.20;1.00
4795;DHT22;2411;47.060;15.064;2022-09-20T16:03:58;13.20;1.00
4795;DHT22;2411;47.060;15.064;2022-09-20T16:06:25;13.10;1.00
4795;DHT22;2411;47.060;15.064;2022-09-20T16:08:52;13.20;1.00
4795;DHT22;2411;47.060;15.064;2022-09-20T16:11:21;13.30;1.00
4795;DHT22;2411;47.060;15.064;2022-09-20T16:13:56;13.20;1.00
4795;DHT22;2411;47.060;15.064;2022-09-20T16:16:24;13.40;1.00
4795;DHT22;2411;47.060;15.064;2022-09-20T16:18:51;13.40;1.00
4795;DHT22;2411;47.060;15.064;2022-09-20T16:21:39;13.60;1.00
4795;DHT22;2411;47.060;15.064;2022-09-20T16:24:06;13.40;1.00
4795;DHT22;2411;47.060;15.064;2022-09-20T16:26:34;13.20;1.00
4795;DHT22;2411;47.060;15.064;2022-09-20T16:29:01;13.00;1.00
4795;DHT22;2411;47.060;15.064;2022-09-20T16:34:17;12.60;1.00
4795;DHT22;2411;47.060;15.064;2022-09-20T16:36:46;12.40;1.00
4795;DHT22;2411;47.060;15.064;2022-09-20T16:39:16;12.10;1.00
4795;DHT22;2411;47.060;15.064;2022-09-20T16:41:45;12.10;1.00
4795;DHT22;2411;47.060;15.064;2022-09-20T16:44:14;11.90;1.00
4795;DHT22;2411;47.060;15.064;2022-09-20T16:46:41;11.80;1.00
4795;DHT22;2411;47.060;15.064;2022-09-20T16:49:08;11.70;1.00
4795;DHT22;2411;47.060;15.064;2022-09-20T16:51:39;11.60;1.00
4795;DHT22;2411;47.060;15.064;2022-09-20T16:54:08;11.50;1.00
4795;DHT22;2411;47.060;15.064;2022-09-20T16:56:40;11.30;1.00
4795;DHT22;2411;47.060;15.064;2022-09-20T16:59:07;11.20;1.00
4795;DHT22;2411;47.060;15.064;2022-09-20T17:01:35;11.10;1.00
4795;DHT22;2411;47.060;15.064;2022-09-20T17:04:03;10.90;1.00
4795;DHT22;2411;47.060;15.064;2022-09-20T17:06:32;10.80;1.00
4795;DHT22;2411;47.060;15.064;2022-09-20T17:09:00;10.60;1.00
4795;DHT22;2411;47.060;15.064;2022-09-20T17:11:30;10.40;1.00
4795;DHT22;2411;47.060;15.064;2022-09-20T17:13:57;10.30;1.00
4795;DHT22;2411;47.060;15.064;2022-09-20T17:16:35;10.20;1.00
4795;DHT22;2411;47.060;15.064;2022-09-20T17:19:05;10.10;1.00
4795;DHT22;2411;47.060;15.064;2022-09-20T17:21:34;10.00;1.00
4795;DHT22;2411;47.060;15.064;2022-09-20T17:24:06;9.90;1.00
4795;DHT22;2411;47.060;15.064;2022-09-20T17:26:35;9.70;1.00
4795;DHT22;2411;47.060;15.064;2022-09-20T17:29:09;9.60;1.00
4795;DHT22;2411;47.060;15.064;2022-09-20T17:31:41;9.40;1.00
4795;DHT22;2411;47.060;15.064;2022-09-20T17:34:10;9.20;1.00
4795;DHT22;2411;47.060;15.064;2022-09-20T17:36:42;9.20;1.00
4795;DHT22;2411;47.060;15.064;2022-09-20T17:39:11;9.10;1.00
4795;DHT22;2411;47.060;15.064;2022-09-20T17:41:43;8.90;1.00
4795;DHT22;2411;47.060;15.064;2022-09-20T17:44:11;8.80;1.00
4795;DHT22;2411;47.060;15.064;2022-09-20T17:46:40;8.60;1.00
4795;DHT22;2411;47.060;15.064;2022-09-20T17:49:12;8.50;1.00
4795;DHT22;2411;47.060;15.064;2022-09-20T17:51:41;8.50;1.00
4795;DHT22;2411;47.060;15.064;2022-09-20T17:54:09;8.60;1.00
4795;DHT22;2411;47.060;15.064;2022-09-20T17:56:44;8.50;1.00
4795;DHT22;2411;47.060;15.064;2022-09-20T17:59:13;8.50;1.00
4795;DHT22;2411;47.060;15.064;2022-09-20T18:01:47;8.40;1.00
4795;DHT22;2411;47.060;15.064;2022-09-20T18:04:14;8.30;1.00
4795;DHT22;2411;47.060;15.064;2022-09-20T18:06:47;8.10;1.00
4795;DHT22;2411;47.060;15.064;2022-09-20T18:09:15;7.90;1.00
4795;DHT22;2411;47.060;15.064;2022-09-20T18:11:48;7.80;1.00
4795;DHT22;2411;47.060;15.064;2022-09-20T18:14:20;7.70;1.00
4795;DHT22;2411;47.060;15.064;2022-09-20T18:16:51;7.60;1.00
4795;DHT22;2411;47.060;15.064;2022-09-20T18:19:19;7.50;1.00
4795;DHT22;2411;47.060;15.064;2022-09-20T18:21:48;7.40;1.00
4795;DHT22;2411;47.060;15.064;2022-09-20T18:24:15;7.30;1.00
4795;DHT22;2411;47.060;15.064;2022-09-20T18:26:42;7.30;1.00
4795;DHT22;2411;47.060;15.064;2022-09-20T18:29:12;7.20;1.00
4795;DHT22;2411;47.060;15.064;2022-09-20T18:31:50;7.10;1.00
4795;DHT22;2411;47.060;15.064;2022-09-20T18:34:24;7.10;1.00
4795;DHT22;2411;47.060;15.064;2022-09-20T18:36:55;7.10;1.00
4795;DHT22;2411;47.060;15.064;2022-09-20T18:39:23;7.00;1.00
4795;DHT22;2411;47.060;15.064;2022-09-20T18:41:51;7.10;1.00
4795;DHT22;2411;47.060;15.064;2022-09-20T18:44:19;7.10;1.00
4795;DHT22;2411;47.060;15.064;2022-09-20T18:46:47;7.10;1.00
4795;DHT22;2411;47.060;15.064;2022-09-20T18:49:14;7.10;1.00
4795;DHT22;2411;47.060;15.064;2022-09-20T18:51:43;7.00;1.00
4795;DHT22;2411;47.060;15.064;2022-09-20T18:54:10;6.90;1.00
4795;DHT22;2411;47.060;15.064;2022-09-20T18:56:41;6.90;1.00
4795;DHT22;2411;47.060;15.064;2022-09-20T18:59:13;6.80;1.00
4795;DHT22;2411;47.060;15.064;2022-09-20T19:20:50;7.10;1.00
4795;DHT22;2411;47.060;15.064;2022-09-20T19:23:40;7.10;1.00
4795;DHT22;2411;47.060;15.064;2022-09-20T19:26:19;7.10;1.00
4795;DHT22;2411;47.060;15.064;2022-09-20T19:28:55;7.00;1.00
4795;DHT22;2411;47.060;15.064;2022-09-20T19:31:26;7.00;1.00
4795;DHT22;2411;47.060;15.064;2022-09-20T19:33:55;7.00;1.00
4795;DHT22;2411;47.060;15.064;2022-09-20T19:39:25;7.10;1.00
4795;DHT22;2411;47.060;15.064;2022-09-20T19:48:05;7.00;1.00
4795;DHT22;2411;47.060;15.064;2022-09-20T19:50:36;7.10;1.00
4795;DHT22;2411;47.060;15.064;2022-09-20T19:53:05;7.10;1.00
4795;DHT22;2411;47.060;15.064;2022-09-20T19:55:33;7.10;1.00
4795;DHT22;2411;47.060;15.064;2022-09-20T19:58:03;7.10;1.00
4795;DHT22;2411;47.060;15.064;2022-09-20T20:00:30;7.40;1.00
4795;DHT22;2411;47.060;15.064;2022-09-20T20:02:58;7.70;1.00
4795;DHT22;2411;47.060;15.064;2022-09-20T20:05:25;8.00;1.00
4795;DHT22;2411;47.060;15.064;2022-09-20T20:10:56;8.40;1.00
4795;DHT22;2411;47.060;15.064;2022-09-20T20:13:54;8.50;1.00
4795;DHT22;2411;47.060;15.064;2022-09-20T20:25:04;8.60;1.00
4795;DHT22;2411;47.060;15.064;2022-09-20T20:27:31;8.70;1.00
4795;DHT22;2411;47.060;15.064;2022-09-20T20:29:58;8.60;1.00
4795;DHT22;2411;47.060;15.064;2022-09-20T20:32:25;8.50;1.00
4795;DHT22;2411;47.060;15.064;2022-09-20T20:34:52;8.50;1.00
4795;DHT22;2411;47.060;15.064;2022-09-20T20:37:18;8.50;1.00
4795;DHT22;2411;47.060;15.064;2022-09-20T20:39:49;8.50;1.00
4795;DHT22;2411;47.060;15.064;2022-09-20T20:42:16;8.50;1.00
4795;DHT22;2411;47.060;15.064;2022-09-20T20:44:43;8.40;1.00
4795;DHT22;2411;47.060;15.064;2022-09-20T20:47:10;8.20;1.00
4795;DHT22;2411;47.060;15.064;2022-09-20T20:49:37;8.10;1.00
4795;DHT22;2411;47.060;15.064;2022-09-20T20:52:04;8.00;1.00
4795;DHT22;2411;47.060;15.064;2022-09-20T20:54:31;8.00;1.00
4795;DHT22;2411;47.060;15.064;2022-09-20T20:56:58;7.90;1.00
4795;DHT22;2411;47.060;15.064;2022-09-20T20:59:25;7.70;1.00
4795;DHT22;2411;47.060;15.064;2022-09-20T21:01:52;7.70;1.00
4795;DHT22;2411;47.060;15.064;2022-09-20T21:04:19;7.60;1.00
4795;DHT22;2411;47.060;15.064;2022-09-20T21:06:47;7.50;1.00
4795;DHT22;2411;47.060;15.064;2022-09-20T21:09:16;7.40;1.00
4795;DHT22;2411;47.060;15.064;2022-09-20T21:11:42;7.30;1.00
4795;DHT22;2411;47.060;15.064;2022-09-20T21:14:10;7.10;1.00
4795;DHT22;2411;47.060;15.064;2022-09-20T21:16:40;7.00;1.00
4795;DHT22;2411;47.060;15.064;2022-09-20T21:19:13;6.90;1.00
4795;DHT22;2411;47.060;15.064;2022-09-20T21:21:43;6.90;1.00
4795;DHT22;2411;47.060;15.064;2022-09-20T21:24:12;6.90;1.00
4795;DHT22;2411;47.060;15.064;2022-09-20T21:26:40;6.70;1.00
4795;DHT22;2411;47.060;15.064;2022-09-20T21:29:10;6.60;1.00
4795;DHT22;2411;47.060;15.064;2022-09-20T21:31:39;6.50;1.00
4795;DHT22;2411;47.060;15.064;2022-09-20T21:34:07;6.40;1.00
4795;DHT22;2411;47.060;15.064;2022-09-20T21:36:35;6.30;1.00
4795;DHT22;2411;47.060;15.064;2022-09-20T21:39:03;6.20;1.00
4795;DHT22;2411;47.060;15.064;2022-09-20T21:41:33;6.20;1.00
4795;DHT22;2411;47.060;15.064;2022-09-20T21:44:01;6.10;1.00
4795;DHT22;2411;47.060;15.064;2022-09-20T21:46:34;6.10;1.00
4795;DHT22;2411;47.060;15.064;2022-09-20T21:49:04;6.10;1.00
4795;DHT22;2411;47.060;15.064;2022-09-20T21:51:31;6.10;1.00
4795;DHT22;2411;47.060;15.064;2022-09-20T21:53:59;6.00;1.00
4795;DHT22;2411;47.060;15.064;2022-09-20T21:56:37;6.00;1.00
4795;DHT22;2411;47.060;15.064;2022-09-20T21:59:04;6.10;1.00
4795;DHT22;2411;47.060;15.064;2022-09-20T22:01:35;6.20;1.00
4795;DHT22;2411;47.060;15.064;2022-09-20T22:04:10;6.20;1.00
4795;DHT22;2411;47.060;15.064;2022-09-20T22:06:39;6.30;1.00
4795;DHT22;2411;47.060;15.064;2022-09-20T22:11:37;6.50;1.00
4795;DHT22;2411;47.060;15.064;2022-09-20T22:14:05;6.40;1.00
4795;DHT22;2411;47.060;15.064;2022-09-20T22:16:35;6.50;1.00
4795;DHT22;2411;47.060;15.064;2022-09-20T22:19:04;6.50;1.00
4795;DHT22;2411;47.060;15.064;2022-09-20T22:21:36;6.50;1.00
4795;DHT22;2411;47.060;15.064;2022-09-20T22:24:06;6.40;1.00
4795;DHT22;2411;47.060;15.064;2022-09-20T22:29:04;6.40;1.00
4795;DHT22;2411;47.060;15.064;2022-09-20T22:31:37;6.40;1.00
4795;DHT22;2411;47.060;15.064;2022-09-20T22:34:06;6.30;1.00
4795;DHT22;2411;47.060;15.064;2022-09-20T22:36:35;6.30;1.00
4795;DHT22;2411;47.060;15.064;2022-09-20T22:39:04;6.20;1.00
4795;DHT22;2411;47.060;15.064;2022-09-20T22:41:33;6.30;1.00
4795;DHT22;2411;47.060;15.064;2022-09-20T22:44:00;6.20;1.00
4795;DHT22;2411;47.060;15.064;2022-09-20T22:46:28;6.20;1.00
4795;DHT22;2411;47.060;15.064;2022-09-20T22:48:55;6.20;1.00
4795;DHT22;2411;47.060;15.064;2022-09-20T22:51:25;6.10;1.00
4795;DHT22;2411;47.060;15.064;2022-09-20T22:53:52;6.10;1.00
4795;DHT22;2411;47.060;15.064;2022-09-20T22:56:24;6.10;1.00
4795;DHT22;2411;47.060;15.064;2022-09-20T22:58:57;6.00;1.00
4795;DHT22;2411;47.060;15.064;2022-09-20T23:01:29;5.90;1.00
4795;DHT22;2411;47.060;15.064;2022-09-20T23:04:02;5.80;1.00
4795;DHT22;2411;47.060;15.064;2022-09-20T23:06:38;5.70;1.00